Kezdőlap
METAR-TAF:

METAR-TAF

Repülőterek :

Plymouth Municipal Airport

Plymouth, Massachusetts, Amerikai Egyesült Államok

földrajzi szélesség: 41-54-31N, földrajzi hosszúság: 070-43-41W, magasság: 45 m

Jelenlegi meteorológiai megfigyelések

A jelentés 35 perccel ezelõtt készült, 16:52 UTC
Nyugat-délnyugati szél 11 kt
Hőmérséklet 10°C
Páratartalom 34%
Légköri nyomás 1020 hPa
Látótávolság: 16.1 km
Derült ég

METAR: KPYM 231652Z AUTO 24011KT 10SM CLR 10/M05 A3013 RMK AO2 SLP203 T01001050

Idő: 12:27 (17:27 UTC)


TAF: hiányzik

Meteorológiai megfigyelések és előrejelzések több, mint 4000 repülőtéren (METAR és TAF jelentéseket).

A térképen piros és sárga pontok jelzik az elérhető meteorológiai állomásokat.

Mozgassa az egeret a pont fölött, hogy megjelenjen az állomás neve.

Azután kattintson az időjárási megfigyelések és előrejelzések megtekintéséhez.

A térkép megváltoztatása: kattintson a fekete keresztel jelölt zöld gombra ráközelítéshez, a vonallal jelölt zöld gombra távolításhoz, vagy a zöld nyilakra a szomszédos térképek eléréséhez.


METAR-TAF: